createdAt,value
2019-04-04T00:00:51.610Z,20.20
2019-04-04T00:03:21.075Z,20.20
2019-04-04T00:05:50.884Z,20.20
2019-04-04T00:08:19.607Z,20.20
2019-04-04T00:10:48.524Z,20.20
2019-04-04T00:13:17.244Z,20.20
2019-04-04T00:15:46.074Z,20.20
2019-04-04T00:18:15.535Z,20.10
2019-04-04T00:20:44.184Z,20.20
2019-04-04T00:23:12.923Z,20.10
2019-04-04T00:25:41.598Z,20.20
2019-04-04T00:28:10.264Z,20.10
2019-04-04T00:30:38.938Z,20.10
2019-04-04T00:33:07.617Z,20.10
2019-04-04T00:35:36.281Z,20.10
2019-04-04T00:38:06.797Z,20.10
2019-04-04T00:40:35.375Z,20.10
2019-04-04T00:43:04.019Z,20.10
2019-04-04T00:45:32.674Z,20.10
2019-04-04T00:48:03.152Z,20.10
2019-04-04T00:50:31.761Z,20.10
2019-04-04T00:53:00.398Z,20.10
2019-04-04T00:55:29.079Z,20.10
2019-04-04T00:57:57.729Z,20.10
2019-04-04T01:00:26.384Z,20.10
2019-04-04T01:02:55.043Z,20.10
2019-04-04T01:05:23.706Z,20.10
2019-04-04T01:07:52.363Z,20.10
2019-04-04T01:10:21.005Z,20.00
2019-04-04T01:12:50.156Z,20.00
2019-04-04T01:15:20.045Z,20.00
2019-04-04T01:17:48.710Z,20.00
2019-04-04T01:20:18.111Z,20.00
2019-04-04T01:22:47.742Z,20.00
2019-04-04T01:25:16.400Z,20.00
2019-04-04T01:27:45.069Z,20.00
2019-04-04T01:30:13.714Z,20.00
2019-04-04T01:32:42.400Z,20.00
2019-04-04T01:35:11.158Z,20.00
2019-04-04T01:37:39.804Z,20.00
2019-04-04T01:40:08.500Z,20.00
2019-04-04T01:42:38.773Z,20.00
2019-04-04T01:45:07.619Z,20.00
2019-04-04T01:47:36.273Z,20.00
2019-04-04T01:50:05.634Z,20.00
2019-04-04T01:52:34.291Z,20.00
2019-04-04T01:55:04.040Z,20.00
2019-04-04T01:57:32.809Z,20.00
2019-04-04T02:00:01.470Z,20.00
2019-04-04T02:02:30.129Z,20.00
2019-04-04T02:04:59.488Z,19.90
2019-04-04T02:07:29.801Z,19.90
2019-04-04T02:09:58.658Z,20.00
2019-04-04T02:12:27.346Z,20.00
2019-04-04T02:14:56.039Z,19.90
2019-04-04T02:17:24.709Z,19.90
2019-04-04T02:19:55.622Z,19.90
2019-04-04T02:22:23.758Z,19.90
2019-04-04T02:24:52.398Z,19.90
2019-04-04T02:27:21.063Z,19.90
2019-04-04T02:29:50.451Z,19.90
2019-04-04T02:32:19.800Z,19.90
2019-04-04T02:34:48.461Z,19.90
2019-04-04T02:37:20.802Z,19.90
2019-04-04T02:39:47.561Z,19.90
2019-04-04T02:42:16.214Z,19.90
2019-04-04T02:44:44.872Z,19.90
2019-04-04T02:47:16.808Z,19.90
2019-04-04T02:49:44.003Z,19.90
2019-04-04T02:52:13.336Z,19.90
2019-04-04T02:54:43.113Z,19.90
2019-04-04T02:57:11.791Z,19.90
2019-04-04T02:59:40.454Z,19.90
2019-04-04T03:02:09.129Z,19.80
2019-04-04T03:04:38.516Z,19.90
2019-04-04T03:07:07.234Z,19.90
2019-04-04T03:09:35.917Z,19.90
2019-04-04T03:12:04.647Z,19.90
2019-04-04T03:14:36.219Z,19.80
2019-04-04T03:17:03.962Z,19.80
2019-04-04T03:19:32.641Z,19.80
2019-04-04T03:22:01.392Z,19.80
2019-04-04T03:24:30.078Z,19.80
2019-04-04T03:26:58.746Z,19.80
2019-04-04T03:29:27.453Z,19.80
2019-04-04T03:31:56.108Z,19.80
2019-04-04T03:34:24.776Z,19.80
2019-04-04T03:36:53.487Z,19.80
2019-04-04T03:39:22.154Z,19.80
2019-04-04T03:41:50.808Z,19.80
2019-04-04T03:44:20.774Z,19.80
2019-04-04T03:46:49.813Z,19.80
2019-04-04T03:49:23.191Z,19.80
2019-04-04T03:51:48.921Z,19.80
2019-04-04T03:54:24.905Z,19.80
2019-04-04T03:56:53.555Z,19.80
2019-04-04T03:59:22.247Z,19.80
2019-04-04T04:01:50.956Z,19.70
2019-04-04T04:04:19.685Z,19.70
2019-04-04T04:06:48.338Z,19.80
2019-04-04T04:09:17.024Z,19.70
2019-04-04T04:11:45.671Z,19.80
2019-04-04T04:14:14.340Z,19.70
2019-04-04T04:16:42.977Z,19.70
2019-04-04T04:19:11.692Z,19.70
2019-04-04T04:21:42.722Z,19.70
2019-04-04T04:24:10.832Z,19.70
2019-04-04T04:26:41.998Z,19.70
2019-04-04T04:29:09.916Z,19.70
2019-04-04T04:31:39.235Z,19.70
2019-04-04T04:34:07.910Z,19.70
2019-04-04T04:36:36.574Z,19.70
2019-04-04T04:39:06.440Z,19.70
2019-04-04T04:41:35.535Z,19.70
2019-04-04T04:44:05.736Z,19.70
2019-04-04T04:46:34.907Z,19.70
2019-04-04T04:49:04.281Z,19.70
2019-04-04T04:51:33.441Z,19.60
2019-04-04T04:54:02.092Z,19.70
2019-04-04T04:56:31.298Z,19.60
2019-04-04T04:59:00.734Z,19.70
2019-04-04T05:01:29.446Z,19.70
2019-04-04T05:03:58.075Z,19.70
2019-04-04T05:06:26.841Z,19.70
2019-04-04T05:08:55.569Z,19.60
2019-04-04T05:11:24.291Z,19.70
2019-04-04T05:13:53.003Z,19.60
2019-04-04T05:16:21.837Z,19.70
2019-04-04T05:18:50.539Z,19.70
2019-04-04T05:21:24.824Z,19.60
2019-04-04T05:23:49.634Z,19.60
2019-04-04T05:26:18.287Z,19.60
2019-04-04T05:28:47.053Z,19.70
2019-04-04T05:31:16.144Z,19.70
2019-04-04T05:33:46.157Z,19.60
2019-04-04T05:36:15.380Z,19.70
2019-04-04T05:38:47.027Z,19.60
2019-04-04T05:41:16.425Z,19.60
2019-04-04T05:43:45.055Z,19.70
2019-04-04T05:46:13.671Z,19.70
2019-04-04T05:48:42.318Z,19.70
2019-04-04T05:51:11.027Z,19.70
2019-04-04T05:53:39.727Z,19.70
2019-04-04T05:56:08.401Z,19.80
2019-04-04T05:58:37.053Z,19.80
2019-04-04T06:01:07.048Z,19.80
2019-04-04T06:03:35.776Z,19.80
2019-04-04T06:06:04.437Z,19.80
2019-04-04T06:08:33.145Z,19.80
2019-04-04T06:11:01.802Z,19.90
2019-04-04T06:13:30.498Z,19.90
2019-04-04T06:15:59.174Z,19.90
2019-04-04T06:18:27.843Z,19.90
2019-04-04T06:20:56.525Z,20.00
2019-04-04T06:23:25.804Z,20.00
2019-04-04T06:25:54.959Z,20.00
2019-04-04T06:28:23.736Z,20.10
2019-04-04T06:30:54.232Z,20.10
2019-04-04T06:33:22.810Z,20.10
2019-04-04T06:35:51.474Z,20.20
2019-04-04T06:38:22.941Z,20.20
2019-04-04T06:40:50.522Z,20.20
2019-04-04T06:43:19.217Z,20.30
2019-04-04T06:45:47.850Z,20.30
2019-04-04T06:48:16.528Z,20.30
2019-04-04T06:50:45.200Z,20.30
2019-04-04T06:53:13.870Z,20.40
2019-04-04T06:55:42.522Z,20.40
2019-04-04T06:58:11.192Z,20.40
2019-04-04T07:00:42.100Z,20.50
2019-04-04T07:03:10.251Z,20.50
2019-04-04T07:05:39.032Z,20.60
2019-04-04T07:08:07.865Z,20.60
2019-04-04T07:10:37.362Z,20.60
2019-04-04T07:13:20.445Z,20.60
2019-04-04T07:15:46.214Z,20.70
2019-04-04T07:18:06.773Z,20.70
2019-04-04T07:20:35.456Z,20.70
2019-04-04T07:23:04.118Z,20.80
2019-04-04T07:25:35.612Z,20.80
2019-04-04T07:28:03.155Z,20.80
2019-04-04T07:30:31.827Z,20.90
2019-04-04T07:33:00.550Z,20.90
2019-04-04T07:35:29.214Z,21.00
2019-04-04T07:37:57.904Z,21.10
2019-04-04T07:40:27.682Z,21.00
2019-04-04T07:42:56.330Z,21.00
2019-04-04T07:45:26.735Z,21.10
2019-04-04T07:47:55.649Z,21.00
2019-04-04T07:50:26.385Z,21.10
2019-04-04T07:52:54.698Z,21.10
2019-04-04T07:55:23.356Z,21.10
2019-04-04T07:57:52.008Z,21.10
2019-04-04T08:00:20.663Z,21.10
2019-04-04T08:02:49.314Z,21.10
2019-04-04T08:05:17.970Z,21.10
2019-04-04T08:07:46.658Z,21.10
2019-04-04T08:10:20.870Z,21.20
2019-04-04T08:12:45.707Z,21.30
2019-04-04T08:15:14.436Z,21.30
2019-04-04T08:17:43.134Z,21.40
2019-04-04T08:20:11.771Z,21.40
2019-04-04T08:22:40.451Z,21.40
2019-04-04T08:25:10.736Z,21.40
2019-04-04T08:27:39.470Z,21.40
2019-04-04T08:30:08.139Z,21.40
2019-04-04T08:32:36.936Z,21.50
2019-04-04T08:35:05.964Z,21.50
2019-04-04T08:37:34.630Z,21.50
2019-04-04T08:40:03.767Z,21.50
2019-04-04T08:42:32.426Z,21.50
2019-04-04T08:45:01.111Z,21.50
2019-04-04T08:47:29.766Z,21.50
2019-04-04T08:49:58.444Z,21.50
2019-04-04T08:52:27.611Z,21.50
2019-04-04T08:54:56.250Z,21.50
2019-04-04T08:57:24.959Z,21.50
2019-04-04T08:59:53.647Z,21.60
2019-04-04T09:02:22.276Z,21.60
2019-04-04T09:04:50.947Z,21.50
2019-04-04T09:07:19.588Z,21.60
2019-04-04T09:09:48.269Z,21.50
2019-04-04T09:12:16.971Z,21.50
2019-04-04T09:14:45.616Z,21.50
2019-04-04T09:17:14.268Z,21.50
2019-04-04T09:19:42.918Z,21.50
2019-04-04T09:22:11.715Z,21.50
2019-04-04T09:24:40.667Z,21.50
2019-04-04T09:27:09.300Z,21.50
2019-04-04T09:29:37.964Z,21.50
2019-04-04T09:32:06.630Z,21.50
2019-04-04T09:34:35.282Z,21.40
2019-04-04T09:37:03.922Z,21.40
2019-04-04T09:39:32.574Z,21.40
2019-04-04T09:42:01.289Z,21.40
2019-04-04T09:44:29.947Z,21.40
2019-04-04T09:47:05.286Z,21.40
2019-04-04T09:49:28.971Z,21.40
2019-04-04T09:51:57.631Z,21.40
2019-04-04T09:54:26.970Z,21.40
2019-04-04T09:56:55.625Z,21.40
2019-04-04T09:59:24.294Z,21.40
2019-04-04T10:01:52.939Z,21.40
2019-04-04T10:04:21.695Z,21.40
2019-04-04T10:06:50.351Z,21.30
2019-04-04T10:09:19.006Z,21.30
2019-04-04T10:11:47.695Z,21.30
2019-04-04T10:14:16.997Z,21.30
2019-04-04T10:16:45.744Z,21.30
2019-04-04T10:19:14.463Z,21.30
2019-04-04T10:21:43.122Z,21.30
2019-04-04T10:24:11.784Z,21.30
2019-04-04T10:26:40.465Z,21.30
2019-04-04T10:29:09.139Z,21.30
2019-04-04T10:31:37.795Z,21.30
2019-04-04T10:34:06.446Z,21.30
2019-04-04T10:36:35.115Z,21.30
2019-04-04T10:39:05.429Z,21.30
2019-04-04T10:41:34.140Z,21.20
2019-04-04T10:44:02.787Z,21.20
2019-04-04T10:46:31.428Z,21.20
2019-04-04T10:49:00.083Z,21.30
2019-04-04T10:51:28.753Z,21.20
2019-04-04T10:53:57.409Z,21.20
2019-04-04T10:56:26.092Z,21.20
2019-04-04T10:58:54.758Z,21.20
2019-04-04T11:01:23.422Z,21.20
2019-04-04T11:03:52.090Z,21.20
2019-04-04T11:06:20.738Z,21.20
2019-04-04T11:08:49.393Z,21.20
2019-04-04T11:11:18.075Z,21.20
2019-04-04T11:13:46.794Z,21.20
2019-04-04T11:16:15.462Z,21.20
2019-04-04T11:18:44.100Z,21.20
2019-04-04T11:21:12.762Z,21.20
2019-04-04T11:23:41.424Z,21.20
2019-04-04T11:26:10.068Z,21.20
2019-04-04T11:28:38.747Z,21.20
2019-04-04T11:31:07.473Z,21.20
2019-04-04T11:33:36.147Z,21.20
2019-04-04T11:36:04.801Z,21.20
2019-04-04T11:38:33.431Z,21.20
2019-04-04T11:41:02.069Z,21.20
2019-04-04T11:43:31.376Z,21.20
2019-04-04T11:46:00.032Z,21.20
2019-04-04T11:48:28.769Z,21.20
2019-04-04T11:50:57.411Z,21.20
2019-04-04T11:53:26.083Z,21.20
2019-04-04T11:55:54.990Z,21.20
2019-04-04T11:58:23.712Z,21.20
2019-04-04T12:00:54.524Z,21.20
2019-04-04T12:03:23.247Z,21.20
2019-04-04T12:05:51.941Z,21.20
2019-04-04T12:08:20.605Z,21.20
2019-04-04T12:10:49.376Z,21.20
2019-04-04T12:13:18.071Z,21.20
2019-04-04T12:15:46.787Z,21.20
2019-04-04T12:18:15.428Z,21.20
2019-04-04T12:20:44.079Z,21.20
2019-04-04T12:23:12.740Z,21.20
2019-04-04T12:25:41.451Z,21.20
2019-04-04T12:28:10.132Z,21.20
2019-04-04T12:30:38.767Z,21.20
2019-04-04T12:33:07.442Z,21.20
2019-04-04T12:35:36.142Z,21.10
2019-04-04T12:38:04.795Z,21.20
2019-04-04T12:40:33.446Z,21.20
2019-04-04T12:43:02.110Z,21.20
2019-04-04T12:45:30.748Z,21.10
2019-04-04T12:47:59.435Z,21.10
2019-04-04T12:50:28.156Z,21.20
2019-04-04T12:52:56.816Z,21.10
2019-04-04T12:55:25.458Z,21.10
2019-04-04T12:57:54.133Z,21.20
2019-04-04T13:00:22.775Z,21.10
2019-04-04T13:02:51.438Z,21.10
2019-04-04T13:05:20.092Z,21.10
2019-04-04T13:07:48.723Z,21.10
2019-04-04T13:10:17.370Z,21.10
2019-04-04T13:12:46.045Z,21.10
2019-04-04T13:15:14.785Z,21.20
2019-04-04T13:17:43.469Z,21.20
2019-04-04T13:20:12.148Z,21.20
2019-04-04T13:22:40.850Z,21.10
2019-04-04T13:25:09.518Z,21.10
2019-04-04T13:27:38.241Z,21.20
2019-04-04T13:30:08.940Z,21.20
2019-04-04T13:32:37.618Z,21.10
2019-04-04T13:35:06.305Z,21.20
2019-04-04T13:37:34.940Z,21.10
2019-04-04T13:40:03.699Z,21.20
2019-04-04T13:42:32.361Z,21.20
2019-04-04T13:45:01.014Z,21.20
2019-04-04T13:47:29.683Z,21.10
2019-04-04T13:49:58.332Z,21.10
2019-04-04T13:52:27.117Z,21.10
2019-04-04T13:54:56.383Z,21.10
2019-04-04T13:57:25.824Z,21.10
2019-04-04T13:59:54.460Z,21.10
2019-04-04T14:02:23.120Z,21.10
2019-04-04T14:04:54.711Z,21.10
2019-04-04T14:07:22.147Z,21.10
2019-04-04T14:09:50.798Z,21.10
2019-04-04T14:12:19.444Z,21.10
2019-04-04T14:14:48.101Z,21.10
2019-04-04T14:17:16.784Z,21.10
2019-04-04T14:19:45.606Z,21.10
2019-04-04T14:22:14.475Z,21.10
2019-04-04T14:24:43.175Z,21.10
2019-04-04T14:27:11.845Z,21.10
2019-04-04T14:29:40.600Z,21.10
2019-04-04T14:32:09.909Z,21.10
2019-04-04T14:34:38.628Z,21.10
2019-04-04T14:37:07.267Z,21.10
2019-04-04T14:39:35.943Z,21.10
2019-04-04T14:42:04.598Z,21.10
2019-04-04T14:44:35.786Z,21.10
2019-04-04T14:47:03.640Z,21.10
2019-04-04T14:49:32.336Z,21.10
2019-04-04T14:52:00.987Z,21.10
2019-04-04T14:54:29.940Z,21.10
2019-04-04T14:56:58.982Z,21.10
2019-04-04T14:59:27.670Z,21.10
2019-04-04T15:01:56.399Z,21.10
2019-04-04T15:04:25.713Z,21.10
2019-04-04T15:06:54.451Z,21.00
2019-04-04T15:09:23.130Z,21.00
2019-04-04T15:11:51.823Z,21.00
2019-04-04T15:14:20.538Z,21.00
2019-04-04T15:16:49.172Z,21.00
2019-04-04T15:19:17.837Z,21.00
2019-04-04T15:21:46.660Z,21.00
2019-04-04T15:24:15.336Z,21.00
2019-04-04T15:26:43.209Z,20.90
2019-04-04T15:29:11.862Z,21.00
2019-04-04T15:31:40.599Z,20.90
2019-04-04T15:34:09.278Z,20.90
2019-04-04T15:36:37.945Z,20.90
2019-04-04T15:39:07.055Z,20.90
2019-04-04T15:41:37.237Z,20.90
2019-04-04T15:44:06.105Z,20.90
2019-04-04T15:46:34.784Z,20.90
2019-04-04T15:49:03.504Z,20.90
2019-04-04T15:51:32.152Z,20.90
2019-04-04T15:54:00.799Z,20.90
2019-04-04T15:56:29.670Z,20.90
2019-04-04T15:58:58.325Z,20.80
2019-04-04T16:01:27.006Z,20.90
2019-04-04T16:03:55.745Z,20.90
2019-04-04T16:06:24.441Z,20.90
2019-04-04T16:08:53.098Z,20.90
2019-04-04T16:11:21.770Z,20.90
2019-04-04T16:13:50.412Z,20.90
2019-04-04T16:16:19.099Z,20.90
2019-04-04T16:18:47.799Z,20.90
2019-04-04T16:21:16.515Z,20.90
2019-04-04T16:23:45.176Z,21.00
2019-04-04T16:26:13.810Z,20.90
2019-04-04T16:28:42.493Z,21.00
2019-04-04T16:31:11.149Z,20.90
2019-04-04T16:33:39.841Z,20.90
2019-04-04T16:36:08.565Z,20.90
2019-04-04T16:38:37.795Z,20.90
2019-04-04T16:41:06.553Z,20.90
2019-04-04T16:43:35.211Z,20.90
2019-04-04T16:46:03.890Z,20.90
2019-04-04T16:48:32.687Z,20.90
2019-04-04T16:51:01.364Z,20.80
2019-04-04T16:53:30.156Z,20.80
2019-04-04T16:55:59.125Z,20.80
2019-04-04T16:58:27.763Z,20.80
2019-04-04T17:00:56.428Z,20.80
2019-04-04T17:03:25.255Z,20.80
2019-04-04T17:05:53.896Z,20.80
2019-04-04T17:08:22.596Z,20.80
2019-04-04T17:10:51.245Z,20.80
2019-04-04T17:13:20.561Z,20.80
2019-04-04T17:15:49.403Z,20.80
2019-04-04T17:18:18.093Z,20.80
2019-04-04T17:20:46.854Z,20.80
2019-04-04T17:23:15.548Z,20.80
2019-04-04T17:25:44.690Z,20.80
2019-04-04T17:28:13.351Z,20.80
2019-04-04T17:30:41.999Z,20.80
2019-04-04T17:33:10.699Z,20.80
2019-04-04T17:35:39.443Z,20.80
2019-04-04T17:38:08.095Z,20.80
2019-04-04T17:40:36.779Z,20.80
2019-04-04T17:43:06.004Z,20.80
2019-04-04T17:45:35.624Z,20.80
2019-04-04T17:48:04.283Z,20.80
2019-04-04T17:50:33.290Z,20.80
2019-04-04T17:53:01.985Z,20.80
2019-04-04T17:55:31.093Z,20.80
2019-04-04T17:58:00.056Z,20.80
2019-04-04T18:00:30.468Z,20.80
2019-04-04T18:02:59.263Z,20.80
2019-04-04T18:05:27.936Z,20.80
2019-04-04T18:07:56.641Z,20.80
2019-04-04T18:10:25.288Z,20.80
2019-04-04T18:12:53.989Z,20.80
2019-04-04T18:15:22.663Z,20.80
2019-04-04T18:17:51.408Z,20.80
2019-04-04T18:20:20.056Z,20.80
2019-04-04T18:22:48.741Z,20.80
2019-04-04T18:25:17.500Z,20.80
2019-04-04T18:27:46.191Z,20.80
2019-04-04T18:30:14.878Z,20.70
2019-04-04T18:32:43.547Z,20.70
2019-04-04T18:35:12.820Z,20.70
2019-04-04T18:37:42.544Z,20.70
2019-04-04T18:40:12.068Z,20.70
2019-04-04T18:42:52.504Z,20.70
2019-04-04T18:45:11.796Z,20.70
2019-04-04T18:47:40.519Z,20.70
2019-04-04T18:50:09.175Z,20.70
2019-04-04T18:52:37.839Z,20.70
2019-04-04T18:55:19.118Z,20.70
2019-04-04T18:57:37.709Z,20.70
2019-04-04T19:00:08.190Z,20.80
2019-04-04T19:02:36.896Z,20.80
2019-04-04T19:05:06.416Z,20.80
2019-04-04T19:07:39.479Z,20.80
2019-04-04T19:10:05.741Z,20.80
2019-04-04T19:12:34.444Z,20.80
2019-04-04T19:15:03.802Z,20.70
2019-04-04T19:17:32.617Z,20.70
2019-04-04T19:20:01.283Z,20.70
2019-04-04T19:22:29.972Z,20.70
2019-04-04T19:24:58.679Z,20.70
2019-04-04T19:27:27.342Z,20.70
2019-04-04T19:29:56.141Z,20.70
2019-04-04T19:32:24.856Z,20.70
2019-04-04T19:34:53.560Z,20.70
2019-04-04T19:37:22.277Z,20.70
2019-04-04T19:39:50.954Z,20.70
2019-04-04T19:42:20.812Z,20.70
2019-04-04T19:44:53.570Z,20.70
2019-04-04T19:47:19.858Z,20.60
2019-04-04T19:49:48.585Z,20.60
2019-04-04T19:52:17.274Z,20.60
2019-04-04T19:54:46.033Z,20.60
2019-04-04T19:57:16.803Z,20.60
2019-04-04T19:59:45.145Z,20.60
2019-04-04T20:02:13.838Z,20.60
2019-04-04T20:04:42.533Z,20.60
2019-04-04T20:07:11.241Z,20.60
2019-04-04T20:09:40.569Z,20.60
2019-04-04T20:12:09.255Z,20.60
2019-04-04T20:14:37.957Z,20.60
2019-04-04T20:17:06.612Z,20.60
2019-04-04T20:19:35.277Z,20.50
2019-04-04T20:22:03.992Z,20.50
2019-04-04T20:24:32.778Z,20.50
2019-04-04T20:27:01.459Z,20.50
2019-04-04T20:29:30.155Z,20.50
2019-04-04T20:31:58.844Z,20.50
2019-04-04T20:34:27.536Z,20.50
2019-04-04T20:36:56.188Z,20.50
2019-04-04T20:39:24.855Z,20.50
2019-04-04T20:41:53.720Z,20.50
2019-04-04T20:44:22.435Z,20.50
2019-04-04T20:46:51.063Z,20.50
2019-04-04T20:49:19.719Z,20.60
2019-04-04T20:51:48.429Z,20.70
2019-04-04T20:54:17.170Z,20.60
2019-04-04T20:56:45.896Z,20.60
2019-04-04T20:59:14.616Z,20.70
2019-04-04T21:01:43.362Z,20.70
2019-04-04T21:04:12.122Z,20.80
2019-04-04T21:06:40.771Z,20.80
2019-04-04T21:09:09.477Z,20.80
2019-04-04T21:11:38.211Z,20.80
2019-04-04T21:14:06.888Z,20.80
2019-04-04T21:16:35.707Z,20.80
2019-04-04T21:19:04.397Z,20.80
2019-04-04T21:21:33.108Z,20.80
2019-04-04T21:24:01.810Z,20.80
2019-04-04T21:26:30.505Z,20.70
2019-04-04T21:28:59.199Z,20.80
2019-04-04T21:31:27.844Z,20.70
2019-04-04T21:33:56.574Z,20.70
2019-04-04T21:36:25.269Z,20.70
2019-04-04T21:38:54.116Z,20.70
2019-04-04T21:41:22.836Z,20.70
2019-04-04T21:43:52.431Z,20.70
2019-04-04T21:46:21.469Z,20.70
2019-04-04T21:48:50.360Z,20.70
2019-04-04T21:51:19.078Z,20.70
2019-04-04T21:53:47.867Z,20.70
2019-04-04T21:56:16.767Z,20.70
2019-04-04T21:58:45.484Z,20.70
2019-04-04T22:01:14.527Z,20.70
2019-04-04T22:03:43.214Z,20.70
2019-04-04T22:06:12.100Z,20.70
2019-04-04T22:08:40.796Z,20.60
2019-04-04T22:11:09.426Z,20.60
2019-04-04T22:13:38.127Z,20.60
2019-04-04T22:16:06.795Z,20.60
2019-04-04T22:18:35.689Z,20.60
2019-04-04T22:21:04.344Z,20.60
2019-04-04T22:23:33.046Z,20.60
2019-04-04T22:26:01.716Z,20.60
2019-04-04T22:28:30.410Z,20.60
2019-04-04T22:30:59.069Z,20.60
2019-04-04T22:33:27.718Z,20.60
2019-04-04T22:35:56.367Z,20.60
2019-04-04T22:38:25.010Z,20.60
2019-04-04T22:40:53.735Z,20.60
2019-04-04T22:43:22.442Z,20.50
2019-04-04T22:45:51.134Z,20.50
2019-04-04T22:48:19.871Z,20.50
2019-04-04T22:50:48.627Z,20.50
2019-04-04T22:53:17.319Z,20.50
2019-04-04T22:55:46.081Z,20.50
2019-04-04T22:58:27.414Z,20.50
2019-04-04T23:00:45.548Z,20.50
2019-04-04T23:03:14.245Z,20.50
2019-04-04T23:05:42.930Z,20.50
2019-04-04T23:08:12.323Z,20.50
2019-04-04T23:10:41.091Z,20.40
2019-04-04T23:13:09.770Z,20.40
2019-04-04T23:15:38.543Z,20.40
2019-04-04T23:18:07.560Z,20.40
2019-04-04T23:20:36.293Z,20.40
2019-04-04T23:23:04.953Z,20.40
2019-04-04T23:25:33.630Z,20.40
2019-04-04T23:28:02.374Z,20.40
2019-04-04T23:30:31.089Z,20.40
2019-04-04T23:32:59.741Z,20.40
2019-04-04T23:35:28.447Z,20.30
2019-04-04T23:37:57.137Z,20.30
2019-04-04T23:40:25.840Z,20.30
2019-04-04T23:42:54.535Z,20.30
2019-04-04T23:45:23.380Z,20.30
2019-04-04T23:47:52.118Z,20.30
2019-04-04T23:50:20.795Z,20.30
2019-04-04T23:52:49.484Z,20.30
2019-04-04T23:55:18.172Z,20.30
2019-04-04T23:57:46.820Z,20.20
